sensor_id;sensor_type;location;lat;lon;timestamp;pressure;altitude;pressure_sealevel;temperature;humidity
15662;BME280;7931;52.274;10.470;2022-08-19T00:00:27;100212.19;;;21.05;100.00
15662;BME280;7931;52.274;10.470;2022-08-19T00:02:53;100213.69;;;21.23;100.00
15662;BME280;7931;52.274;10.470;2022-08-19T00:05:19;100207.16;;;21.02;100.00
15662;BME280;7931;52.274;10.470;2022-08-19T00:07:44;100204.41;;;21.17;100.00
15662;BME280;7931;52.274;10.470;2022-08-19T00:10:13;100199.59;;;20.98;100.00
15662;BME280;7931;52.274;10.470;2022-08-19T00:12:39;100202.75;;;21.16;100.00
15662;BME280;7931;52.274;10.470;2022-08-19T00:15:11;100188.78;;;20.98;100.00
15662;BME280;7931;52.274;10.470;2022-08-19T00:17:39;100196.19;;;20.89;100.00
15662;BME280;7931;52.274;10.470;2022-08-19T00:20:06;100208.56;;;20.84;100.00
15662;BME280;7931;52.274;10.470;2022-08-19T00:22:32;100207.09;;;20.96;100.00
15662;BME280;7931;52.274;10.470;2022-08-19T00:24:57;100208.56;;;20.84;100.00
15662;BME280;7931;52.274;10.470;2022-08-19T00:27:23;100206.91;;;20.83;100.00
15662;BME280;7931;52.274;10.470;2022-08-19T00:29:48;100209.31;;;21.07;100.00
15662;BME280;7931;52.274;10.470;2022-08-19T00:32:14;100212.78;;;20.86;100.00
15662;BME280;7931;52.274;10.470;2022-08-19T00:34:40;100219.97;;;20.94;100.00
15662;BME280;7931;52.274;10.470;2022-08-19T00:37:05;100217.00;;;20.89;100.00
15662;BME280;7931;52.274;10.470;2022-08-19T00:39:31;100206.44;;;20.94;100.00
15662;BME280;7931;52.274;10.470;2022-08-19T00:41:56;100208.13;;;20.80;100.00
15662;BME280;7931;52.274;10.470;2022-08-19T00:44:27;100217.84;;;20.89;100.00
15662;BME280;7931;52.274;10.470;2022-08-19T00:46:55;100218.84;;;20.73;100.00
15662;BME280;7931;52.274;10.470;2022-08-19T00:49:25;100212.88;;;20.78;100.00
15662;BME280;7931;52.274;10.470;2022-08-19T00:51:56;100205.72;;;20.70;100.00
15662;BME280;7931;52.274;10.470;2022-08-19T00:54:23;100199.91;;;20.73;100.00
15662;BME280;7931;52.274;10.470;2022-08-19T00:56:49;100195.72;;;20.86;100.00
15662;BME280;7931;52.274;10.470;2022-08-19T00:59:16;100192.56;;;20.67;100.00
15662;BME280;7931;52.274;10.470;2022-08-19T01:01:44;100191.16;;;20.57;100.00
15662;BME280;7931;52.274;10.470;2022-08-19T01:04:09;100191.72;;;20.67;100.00
15662;BME280;7931;52.274;10.470;2022-08-19T01:06:36;100192.91;;;20.64;100.00
15662;BME280;7931;52.274;10.470;2022-08-19T01:09:03;100192.91;;;20.49;100.00
15662;BME280;7931;52.274;10.470;2022-08-19T01:11:31;100196.09;;;20.53;100.00
15662;BME280;7931;52.274;10.470;2022-08-19T01:13:59;100182.22;;;20.56;100.00
15662;BME280;7931;52.274;10.470;2022-08-19T01:16:27;100195.06;;;20.69;100.00
15662;BME280;7931;52.274;10.470;2022-08-19T01:18:53;100194.44;;;20.67;100.00
15662;BME280;7931;52.274;10.470;2022-08-19T01:23:56;100185.28;;;20.53;100.00
15662;BME280;7931;52.274;10.470;2022-08-19T01:26:23;100180.97;;;20.44;100.00
15662;BME280;7931;52.274;10.470;2022-08-19T01:28:51;100189.19;;;20.36;100.00
15662;BME280;7931;52.274;10.470;2022-08-19T01:31:21;100188.03;;;20.45;100.00
15662;BME280;7931;52.274;10.470;2022-08-19T01:33:49;100188.81;;;20.53;100.00
15662;BME280;7931;52.274;10.470;2022-08-19T01:36:22;100187.91;;;20.61;100.00
15662;BME280;7931;52.274;10.470;2022-08-19T01:38:48;100192.34;;;20.54;100.00
15662;BME280;7931;52.274;10.470;2022-08-19T01:41:14;100185.31;;;20.30;100.00
15662;BME280;7931;52.274;10.470;2022-08-19T01:43:40;100188.03;;;20.30;100.00
15662;BME280;7931;52.274;10.470;2022-08-19T01:46:05;100189.19;;;20.36;100.00
15662;BME280;7931;52.274;10.470;2022-08-19T01:48:39;100184.44;;;20.67;100.00
15662;BME280;7931;52.274;10.470;2022-08-19T01:51:06;100177.72;;;20.48;100.00
15662;BME280;7931;52.274;10.470;2022-08-19T01:53:32;100171.47;;;20.48;100.00
15662;BME280;7931;52.274;10.470;2022-08-19T01:55:58;100170.97;;;20.44;100.00
15662;BME280;7931;52.274;10.470;2022-08-19T01:58:30;100183.78;;;20.36;100.00
15662;BME280;7931;52.274;10.470;2022-08-19T02:00:58;100170.53;;;20.41;100.00
15662;BME280;7931;52.274;10.470;2022-08-19T02:03:24;100177.41;;;20.28;100.00
15662;BME280;7931;52.274;10.470;2022-08-19T02:05:55;100167.44;;;20.29;100.00
15662;BME280;7931;52.274;10.470;2022-08-19T02:08:21;100167.59;;;20.13;100.00
15662;BME280;7931;52.274;10.470;2022-08-19T02:10:46;100173.50;;;20.16;100.00
15662;BME280;7931;52.274;10.470;2022-08-19T02:13:13;100177.16;;;20.00;100.00
15662;BME280;7931;52.274;10.470;2022-08-19T02:15:38;100180.63;;;20.09;100.00
15662;BME280;7931;52.274;10.470;2022-08-19T02:18:04;100187.38;;;20.13;100.00
15662;BME280;7931;52.274;10.470;2022-08-19T02:20:30;100176.25;;;20.08;100.00
15662;BME280;7931;52.274;10.470;2022-08-19T02:22:56;100184.81;;;19.97;100.00
15662;BME280;7931;52.274;10.470;2022-08-19T02:25:21;100183.88;;;20.05;100.00
15662;BME280;7931;52.274;10.470;2022-08-19T02:27:46;100183.75;;;19.83;100.00
15662;BME280;7931;52.274;10.470;2022-08-19T02:30:14;100178.81;;;19.87;100.00
15662;BME280;7931;52.274;10.470;2022-08-19T02:32:41;100180.31;;;19.89;100.00
15662;BME280;7931;52.274;10.470;2022-08-19T02:35:07;100177.38;;;19.99;100.00
15662;BME280;7931;52.274;10.470;2022-08-19T02:37:33;100179.03;;;20.00;100.00
15662;BME280;7931;52.274;10.470;2022-08-19T02:40:17;100178.09;;;19.93;100.00
15662;BME280;7931;52.274;10.470;2022-08-19T02:42:43;100162.78;;;19.85;100.00
15662;BME280;7931;52.274;10.470;2022-08-19T02:45:09;100168.09;;;19.79;100.00
15662;BME280;7931;52.274;10.470;2022-08-19T02:47:34;100162.22;;;19.75;100.00
15662;BME280;7931;52.274;10.470;2022-08-19T02:50:01;100165.44;;;19.70;100.00
15662;BME280;7931;52.274;10.470;2022-08-19T02:52:27;100166.09;;;19.72;100.00
15662;BME280;7931;52.274;10.470;2022-08-19T02:54:53;100164.97;;;19.67;100.00
15662;BME280;7931;52.274;10.470;2022-08-19T02:57:21;100164.19;;;19.58;100.00
15662;BME280;7931;52.274;10.470;2022-08-19T02:59:47;100165.25;;;19.49;100.00
15662;BME280;7931;52.274;10.470;2022-08-19T03:02:13;100166.47;;;19.69;100.00
15662;BME280;7931;52.274;10.470;2022-08-19T03:04:38;100165.44;;;19.70;100.00
15662;BME280;7931;52.274;10.470;2022-08-19T03:07:04;100166.09;;;19.49;100.00
15662;BME280;7931;52.274;10.470;2022-08-19T03:09:29;100165.50;;;19.62;100.00
15662;BME280;7931;52.274;10.470;2022-08-19T03:11:55;100172.13;;;19.60;100.00
15662;BME280;7931;52.274;10.470;2022-08-19T03:14:20;100176.31;;;19.62;100.00
15662;BME280;7931;52.274;10.470;2022-08-19T03:16:48;100180.78;;;19.47;100.00
15662;BME280;7931;52.274;10.470;2022-08-19T03:19:17;100188.16;;;19.53;100.00
15662;BME280;7931;52.274;10.470;2022-08-19T03:21:43;100193.09;;;19.49;100.00
15662;BME280;7931;52.274;10.470;2022-08-19T03:24:13;100196.31;;;19.45;100.00
15662;BME280;7931;52.274;10.470;2022-08-19T03:26:46;100188.53;;;19.50;100.00
15662;BME280;7931;52.274;10.470;2022-08-19T03:29:13;100189.31;;;19.59;100.00
15662;BME280;7931;52.274;10.470;2022-08-19T03:31:41;100188.34;;;19.51;100.00
15662;BME280;7931;52.274;10.470;2022-08-19T03:34:09;100179.44;;;19.43;100.00
15662;BME280;7931;52.274;10.470;2022-08-19T03:36:35;100191.47;;;19.40;100.00
15662;BME280;7931;52.274;10.470;2022-08-19T03:39:00;100194.72;;;19.27;100.00
15662;BME280;7931;52.274;10.470;2022-08-19T03:41:28;100189.72;;;19.24;100.00
15662;BME280;7931;52.274;10.470;2022-08-19T03:43:54;100192.44;;;19.16;100.00
15662;BME280;7931;52.274;10.470;2022-08-19T03:46:28;100192.06;;;19.19;100.00
15662;BME280;7931;52.274;10.470;2022-08-19T03:48:57;100180.66;;;19.09;100.00
15662;BME280;7931;52.274;10.470;2022-08-19T03:51:35;100185.22;;;19.09;100.00
15662;BME280;7931;52.274;10.470;2022-08-19T03:54:03;100191.94;;;19.13;100.00
15662;BME280;7931;52.274;10.470;2022-08-19T03:56:30;100192.50;;;19.00;100.00
15662;BME280;7931;52.274;10.470;2022-08-19T03:58:57;100195.78;;;19.18;100.00
15662;BME280;7931;52.274;10.470;2022-08-19T04:01:25;100195.88;;;19.33;100.00
15662;BME280;7931;52.274;10.470;2022-08-19T04:03:55;100187.25;;;19.15;100.00
15662;BME280;7931;52.274;10.470;2022-08-19T04:06:33;100192.00;;;19.36;100.00
15662;BME280;7931;52.274;10.470;2022-08-19T04:09:02;100191.53;;;19.24;100.00
15662;BME280;7931;52.274;10.470;2022-08-19T04:11:31;100190.09;;;19.13;100.00
15662;BME280;7931;52.274;10.470;2022-08-19T04:13:57;100189.47;;;19.03;100.00
15662;BME280;7931;52.274;10.470;2022-08-19T04:16:24;100200.09;;;19.05;100.00
15662;BME280;7931;52.274;10.470;2022-08-19T04:18:54;100205.47;;;19.05;100.00
15662;BME280;7931;52.274;10.470;2022-08-19T04:21:22;100216.47;;;18.95;100.00
15662;BME280;7931;52.274;10.470;2022-08-19T04:23:48;100211.06;;;19.03;100.00
15662;BME280;7931;52.274;10.470;2022-08-19T04:26:15;100208.03;;;19.06;100.00
15662;BME280;7931;52.274;10.470;2022-08-19T04:28:42;100206.69;;;19.02;100.00
15662;BME280;7931;52.274;10.470;2022-08-19T04:31:13;100208.38;;;18.95;100.00
15662;BME280;7931;52.274;10.470;2022-08-19T04:33:39;100212.41;;;18.99;100.00
15662;BME280;7931;52.274;10.470;2022-08-19T04:36:04;100211.09;;;18.95;100.00
15662;BME280;7931;52.274;10.470;2022-08-19T04:38:30;100206.81;;;19.09;100.00
15662;BME280;7931;52.274;10.470;2022-08-19T04:40:55;100211.56;;;19.07;100.00
15662;BME280;7931;52.274;10.470;2022-08-19T04:43:39;100214.47;;;18.97;100.00
15662;BME280;7931;52.274;10.470;2022-08-19T04:46:07;100221.88;;;18.95;100.00
15662;BME280;7931;52.274;10.470;2022-08-19T04:48:33;100218.03;;;18.89;100.00
15662;BME280;7931;52.274;10.470;2022-08-19T04:50:59;100219.56;;;18.84;100.00
15662;BME280;7931;52.274;10.470;2022-08-19T04:53:26;100221.59;;;18.82;100.00
15662;BME280;7931;52.274;10.470;2022-08-19T04:56:04;100218.22;;;18.80;100.00
15662;BME280;7931;52.274;10.470;2022-08-19T04:58:30;100223.81;;;18.70;100.00
15662;BME280;7931;52.274;10.470;2022-08-19T05:00:55;100218.09;;;18.73;100.00
15662;BME280;7931;52.274;10.470;2022-08-19T05:03:21;100209.84;;;18.66;100.00
15662;BME280;7931;52.274;10.470;2022-08-19T05:05:47;100216.72;;;18.77;100.00
15662;BME280;7931;52.274;10.470;2022-08-19T05:08:18;100213.66;;;18.88;100.00
15662;BME280;7931;52.274;10.470;2022-08-19T05:10:49;100210.31;;;18.86;100.00
15662;BME280;7931;52.274;10.470;2022-08-19T05:13:17;100201.03;;;18.81;100.00
15662;BME280;7931;52.274;10.470;2022-08-19T05:15:45;100195.31;;;18.75;100.00
15662;BME280;7931;52.274;10.470;2022-08-19T05:18:18;100193.81;;;18.73;100.00
15662;BME280;7931;52.274;10.470;2022-08-19T05:21:09;100186.56;;;18.73;100.00
15662;BME280;7931;52.274;10.470;2022-08-19T05:23:54;100196.13;;;18.84;100.00
15662;BME280;7931;52.274;10.470;2022-08-19T05:26:19;100198.34;;;18.81;100.00
15662;BME280;7931;52.274;10.470;2022-08-19T05:28:45;100206.09;;;18.75;100.00
15662;BME280;7931;52.274;10.470;2022-08-19T05:31:10;100206.47;;;18.64;100.00
15662;BME280;7931;52.274;10.470;2022-08-19T05:33:35;100201.09;;;18.72;100.00
15662;BME280;7931;52.274;10.470;2022-08-19T05:36:02;100207.50;;;18.71;100.00
15662;BME280;7931;52.274;10.470;2022-08-19T05:38:28;100208.66;;;18.69;100.00
15662;BME280;7931;52.274;10.470;2022-08-19T05:40:53;100209.47;;;18.78;100.00
15662;BME280;7931;52.274;10.470;2022-08-19T05:43:19;100213.19;;;18.77;100.00
15662;BME280;7931;52.274;10.470;2022-08-19T05:45:45;100216.56;;;18.79;100.00
15662;BME280;7931;52.274;10.470;2022-08-19T05:48:11;100219.75;;;18.74;100.00
15662;BME280;7931;52.274;10.470;2022-08-19T05:50:38;100224.00;;;18.68;100.00
15662;BME280;7931;52.274;10.470;2022-08-19T05:53:05;100218.75;;;18.67;100.00
15662;BME280;7931;52.274;10.470;2022-08-19T05:55:31;100214.88;;;18.78;100.00
15662;BME280;7931;52.274;10.470;2022-08-19T05:57:57;100224.97;;;18.75;100.00
15662;BME280;7931;52.274;10.470;2022-08-19T06:00:22;100221.59;;;18.82;100.00
15662;BME280;7931;52.274;10.470;2022-08-19T06:02:48;100221.94;;;18.79;100.00
15662;BME280;7931;52.274;10.470;2022-08-19T06:05:14;100219.22;;;18.87;100.00
15662;BME280;7931;52.274;10.470;2022-08-19T06:07:39;100217.38;;;18.79;100.00
15662;BME280;7931;52.274;10.470;2022-08-19T06:10:07;100224.97;;;18.84;100.00
15662;BME280;7931;52.274;10.470;2022-08-19T06:12:34;100232.72;;;18.87;100.00
15662;BME280;7931;52.274;10.470;2022-08-19T06:15:03;100228.34;;;18.78;100.00
15662;BME280;7931;52.274;10.470;2022-08-19T06:17:31;100220.56;;;18.91;100.00
15662;BME280;7931;52.274;10.470;2022-08-19T06:19:56;100225.59;;;18.94;100.00
15662;BME280;7931;52.274;10.470;2022-08-19T06:22:22;100232.44;;;19.05;100.00
15662;BME280;7931;52.274;10.470;2022-08-19T06:24:48;100234.69;;;19.01;100.00
15662;BME280;7931;52.274;10.470;2022-08-19T06:27:18;100235.84;;;18.98;100.00
15662;BME280;7931;52.274;10.470;2022-08-19T06:29:43;100236.34;;;19.02;100.00
15662;BME280;7931;52.274;10.470;2022-08-19T06:32:09;100236.69;;;18.99;100.00
15662;BME280;7931;52.274;10.470;2022-08-19T06:34:34;100233.97;;;19.07;100.00
15662;BME280;7931;52.274;10.470;2022-08-19T06:37:00;100241.94;;;19.00;100.00
15662;BME280;7931;52.274;10.470;2022-08-19T06:39:30;100248.63;;;19.05;100.00
15662;BME280;7931;52.274;10.470;2022-08-19T06:41:58;100258.38;;;19.14;100.00
15662;BME280;7931;52.274;10.470;2022-08-19T06:44:26;100260.56;;;19.18;100.00
15662;BME280;7931;52.274;10.470;2022-08-19T06:46:54;100267.16;;;19.16;100.00
15662;BME280;7931;52.274;10.470;2022-08-19T06:49:19;100262.94;;;19.13;100.00
15662;BME280;7931;52.274;10.470;2022-08-19T06:51:47;100261.97;;;19.06;100.00
15662;BME280;7931;52.274;10.470;2022-08-19T06:54:14;100261.97;;;19.06;100.00
15662;BME280;7931;52.274;10.470;2022-08-19T06:56:41;100265.19;;;19.02;100.00
15662;BME280;7931;52.274;10.470;2022-08-19T06:59:12;100263.03;;;18.89;100.00
15662;BME280;7931;52.274;10.470;2022-08-19T07:01:43;100279.81;;;19.07;100.00
15662;BME280;7931;52.274;10.470;2022-08-19T07:04:11;100280.84;;;19.06;100.00
15662;BME280;7931;52.274;10.470;2022-08-19T07:06:37;100285.22;;;19.07;100.00
15662;BME280;7931;52.274;10.470;2022-08-19T07:09:06;100287.94;;;18.99;100.00
15662;BME280;7931;52.274;10.470;2022-08-19T07:11:32;100284.53;;;19.13;100.00
15662;BME280;7931;52.274;10.470;2022-08-19T07:13:59;100287.50;;;19.26;100.00
15662;BME280;7931;52.274;10.470;2022-08-19T07:16:25;100300.44;;;18.92;100.00
15662;BME280;7931;52.274;10.470;2022-08-19T07:18:51;100307.22;;;19.27;100.00
15662;BME280;7931;52.274;10.470;2022-08-19T07:21:24;100302.03;;;19.17;100.00
15662;BME280;7931;52.274;10.470;2022-08-19T07:23:51;100305.91;;;19.23;100.00
15662;BME280;7931;52.274;10.470;2022-08-19T07:26:20;100306.94;;;19.14;100.00
15662;BME280;7931;52.274;10.470;2022-08-19T07:28:47;100308.59;;;19.23;100.00
15662;BME280;7931;52.274;10.470;2022-08-19T07:31:14;100322.91;;;19.23;100.00
15662;BME280;7931;52.274;10.470;2022-08-19T07:33:40;100316.75;;;19.15;100.00
15662;BME280;7931;52.274;10.470;2022-08-19T07:36:08;100324.63;;;19.24;100.00
15662;BME280;7931;52.274;10.470;2022-08-19T07:38:37;100330.69;;;19.26;100.00
15662;BME280;7931;52.274;10.470;2022-08-19T07:41:05;100335.06;;;19.27;100.00
15662;BME280;7931;52.274;10.470;2022-08-19T07:43:30;100337.94;;;19.26;100.00
15662;BME280;7931;52.274;10.470;2022-08-19T07:45:55;100344.19;;;19.18;100.00
15662;BME280;7931;52.274;10.470;2022-08-19T07:48:23;100344.31;;;19.33;100.00
15662;BME280;7931;52.274;10.470;2022-08-19T07:50:54;100353.59;;;19.31;100.00
15662;BME280;7931;52.274;10.470;2022-08-19T07:53:21;100356.31;;;19.22;100.00
15662;BME280;7931;52.274;10.470;2022-08-19T07:55:47;100353.22;;;19.42;100.00
15662;BME280;7931;52.274;10.470;2022-08-19T07:58:15;100344.25;;;19.49;100.00
15662;BME280;7931;52.274;10.470;2022-08-19T08:00:42;100345.13;;;19.42;100.00
15662;BME280;7931;52.274;10.470;2022-08-19T08:03:07;100346.84;;;19.35;100.00
15662;BME280;7931;52.274;10.470;2022-08-19T08:05:34;100353.94;;;19.36;100.00
15662;BME280;7931;52.274;10.470;2022-08-19T08:08:18;100355.06;;;19.49;100.00
15662;BME280;7931;52.274;10.470;2022-08-19T08:11:07;100350.13;;;19.61;100.00
15662;BME280;7931;52.274;10.470;2022-08-19T08:13:32;100356.41;;;19.54;100.00
15662;BME280;7931;52.274;10.470;2022-08-19T08:16:01;100359.41;;;19.59;100.00
15662;BME280;7931;52.274;10.470;2022-08-19T08:18:27;100350.63;;;19.57;100.00
15662;BME280;7931;52.274;10.470;2022-08-19T08:20:53;100344.69;;;19.69;100.00
15662;BME280;7931;52.274;10.470;2022-08-19T08:23:19;100356.47;;;19.76;100.00
15662;BME280;7931;52.274;10.470;2022-08-19T08:25:48;100348.94;;;19.95;100.00
15662;BME280;7931;52.274;10.470;2022-08-19T08:28:15;100354.34;;;19.95;100.00
15662;BME280;7931;52.274;10.470;2022-08-19T08:30:41;100343.63;;;19.79;100.00
15662;BME280;7931;52.274;10.470;2022-08-19T08:33:09;100341.84;;;19.94;100.00
15662;BME280;7931;52.274;10.470;2022-08-19T08:35:34;100343.53;;;19.95;100.00
15662;BME280;7931;52.274;10.470;2022-08-19T08:38:00;100338.88;;;19.81;100.00
15662;BME280;7931;52.274;10.470;2022-08-19T08:40:36;100344.03;;;19.98;100.00
15662;BME280;7931;52.274;10.470;2022-08-19T08:43:07;100352.09;;;20.07;100.00
15662;BME280;7931;52.274;10.470;2022-08-19T08:45:36;100349.69;;;19.81;100.00
15662;BME280;7931;52.274;10.470;2022-08-19T08:48:18;100349.22;;;20.00;100.00
15662;BME280;7931;52.274;10.470;2022-08-19T08:50:47;100348.50;;;20.06;100.00
15662;BME280;7931;52.274;10.470;2022-08-19T08:53:17;100354.59;;;20.08;100.00
15662;BME280;7931;52.274;10.470;2022-08-19T08:55:44;100356.69;;;19.98;100.00
15662;BME280;7931;52.274;10.470;2022-08-19T08:58:19;100353.06;;;20.06;100.00
15662;BME280;7931;52.274;10.470;2022-08-19T09:00:49;100357.56;;;20.21;100.00
15662;BME280;7931;52.274;10.470;2022-08-19T09:03:22;100344.25;;;20.35;100.00
15662;BME280;7931;52.274;10.470;2022-08-19T09:06:23;100349.50;;;20.36;100.00
15662;BME280;7931;52.274;10.470;2022-08-19T09:08:59;100343.31;;;20.27;100.00
15662;BME280;7931;52.274;10.470;2022-08-19T09:16:26;100344.25;;;20.58;100.00
15662;BME280;7931;52.274;10.470;2022-08-19T09:18:55;100346.66;;;20.75;100.00
15662;BME280;7931;52.274;10.470;2022-08-19T09:21:23;100350.63;;;20.65;100.00
15662;BME280;7931;52.274;10.470;2022-08-19T09:23:50;100365.28;;;20.70;100.00
15662;BME280;7931;52.274;10.470;2022-08-19T09:26:19;100368.63;;;20.72;100.00
15662;BME280;7931;52.274;10.470;2022-08-19T09:28:48;100372.84;;;20.75;100.00
15662;BME280;7931;52.274;10.470;2022-08-19T09:31:17;100368.94;;;20.77;100.00
15662;BME280;7931;52.274;10.470;2022-08-19T09:33:43;100369.31;;;20.74;100.00
15662;BME280;7931;52.274;10.470;2022-08-19T09:36:12;100365.28;;;20.70;100.00
15662;BME280;7931;52.274;10.470;2022-08-19T09:38:38;100375.88;;;20.57;100.00
15662;BME280;7931;52.274;10.470;2022-08-19T09:41:10;100379.50;;;20.64;100.00
15662;BME280;7931;52.274;10.470;2022-08-19T09:43:39;100380.19;;;20.66;100.00
15662;BME280;7931;52.274;10.470;2022-08-19T09:46:06;100372.72;;;20.68;100.00
15662;BME280;7931;52.274;10.470;2022-08-19T09:48:38;100378.00;;;20.85;100.00
15662;BME280;7931;52.274;10.470;2022-08-19T09:51:07;100371.28;;;20.81;100.00
15662;BME280;7931;52.274;10.470;2022-08-19T09:53:37;100373.53;;;20.92;100.00
15662;BME280;7931;52.274;10.470;2022-08-19T09:56:04;100371.56;;;20.86;100.00
15662;BME280;7931;52.274;10.470;2022-08-19T09:58:31;100374.16;;;20.79;100.00
15662;BME280;7931;52.274;10.470;2022-08-19T10:00:58;100371.63;;;20.77;100.00
15662;BME280;7931;52.274;10.470;2022-08-19T10:03:25;100379.97;;;20.91;100.00
15662;BME280;7931;52.274;10.470;2022-08-19T10:05:52;100373.59;;;20.84;100.00
15662;BME280;7931;52.274;10.470;2022-08-19T10:08:29;100373.56;;;20.69;100.00
15662;BME280;7931;52.274;10.470;2022-08-19T10:10:55;100366.41;;;20.76;100.00
15662;BME280;7931;52.274;10.470;2022-08-19T10:13:25;100362.06;;;20.90;100.00
15662;BME280;7931;52.274;10.470;2022-08-19T10:15:53;100369.91;;;20.99;100.00
15662;BME280;7931;52.274;10.470;2022-08-19T10:18:20;100366.81;;;21.02;100.00
15662;BME280;7931;52.274;10.470;2022-08-19T10:20:48;100363.00;;;21.12;100.00
15662;BME280;7931;52.274;10.470;2022-08-19T10:23:14;100359.66;;;21.10;100.00
15662;BME280;7931;52.274;10.470;2022-08-19T10:25:41;100356.47;;;21.21;100.00
15662;BME280;7931;52.274;10.470;2022-08-19T10:28:08;100355.63;;;21.20;100.00
15662;BME280;7931;52.274;10.470;2022-08-19T10:30:38;100343.34;;;21.33;100.00
15662;BME280;7931;52.274;10.470;2022-08-19T10:33:04;100339.63;;;21.34;100.00
15662;BME280;7931;52.274;10.470;2022-08-19T10:35:30;100328.66;;;21.57;100.00
15662;BME280;7931;52.274;10.470;2022-08-19T10:37:56;100348.47;;;21.57;100.00
15662;BME280;7931;52.274;10.470;2022-08-19T10:40:26;100336.28;;;21.68;99.04
15662;BME280;7931;52.274;10.470;2022-08-19T10:42:53;100349.63;;;21.69;100.00
15662;BME280;7931;52.274;10.470;2022-08-19T10:45:18;100349.59;;;21.84;100.00
15662;BME280;7931;52.274;10.470;2022-08-19T10:47:44;100337.81;;;21.92;98.82
15662;BME280;7931;52.274;10.470;2022-08-19T10:50:09;100341.63;;;21.97;99.74
15662;BME280;7931;52.274;10.470;2022-08-19T10:52:53;100334.97;;;22.36;96.34
15662;BME280;7931;52.274;10.470;2022-08-19T10:55:21;100330.59;;;22.63;93.18
15662;BME280;7931;52.274;10.470;2022-08-19T10:58:13;100325.50;;;23.03;90.69
15662;BME280;7931;52.274;10.470;2022-08-19T11:00:40;100315.50;;;23.10;86.92
15662;BME280;7931;52.274;10.470;2022-08-19T11:03:05;100311.56;;;23.19;85.17
15662;BME280;7931;52.274;10.470;2022-08-19T11:05:31;100308.00;;;23.12;85.97
15662;BME280;7931;52.274;10.470;2022-08-19T11:07:56;100300.94;;;23.24;84.52
15662;BME280;7931;52.274;10.470;2022-08-19T11:10:21;100291.03;;;23.51;82.69
15662;BME280;7931;52.274;10.470;2022-08-19T11:12:49;100302.44;;;23.81;81.69
15662;BME280;7931;52.274;10.470;2022-08-19T11:15:20;100297.91;;;24.15;79.79
15662;BME280;7931;52.274;10.470;2022-08-19T11:17:45;100306.34;;;24.47;76.03
15662;BME280;7931;52.274;10.470;2022-08-19T11:20:12;100306.75;;;24.37;76.34
15662;BME280;7931;52.274;10.470;2022-08-19T11:22:39;100315.28;;;24.14;77.86
15662;BME280;7931;52.274;10.470;2022-08-19T11:25:06;100304.63;;;24.19;76.98
15662;BME280;7931;52.274;10.470;2022-08-19T11:27:31;100306.72;;;24.24;76.42
15662;BME280;7931;52.274;10.470;2022-08-19T11:29:57;100298.78;;;24.49;75.12
15662;BME280;7931;52.274;10.470;2022-08-19T11:32:22;100300.88;;;24.60;73.68
15662;BME280;7931;52.274;10.470;2022-08-19T11:34:48;100296.72;;;24.38;74.08
15662;BME280;7931;52.274;10.470;2022-08-19T11:37:13;100294.19;;;24.63;72.51
15662;BME280;7931;52.274;10.470;2022-08-19T11:39:38;100296.47;;;24.79;72.60
15662;BME280;7931;52.274;10.470;2022-08-19T11:42:05;100300.41;;;24.90;71.87
15662;BME280;7931;52.274;10.470;2022-08-19T11:44:52;100298.72;;;25.15;69.99
15662;BME280;7931;52.274;10.470;2022-08-19T11:47:18;100303.13;;;25.16;70.08
15662;BME280;7931;52.274;10.470;2022-08-19T11:49:45;100297.88;;;24.95;70.08
15662;BME280;7931;52.274;10.470;2022-08-19T11:52:11;100298.34;;;24.78;71.76
15662;BME280;7931;52.274;10.470;2022-08-19T11:54:36;100305.91;;;24.63;71.10
15662;BME280;7931;52.274;10.470;2022-08-19T11:57:03;100315.94;;;24.69;71.36
15662;BME280;7931;52.274;10.470;2022-08-19T11:59:29;100306.75;;;24.57;72.49
15662;BME280;7931;52.274;10.470;2022-08-19T12:01:55;100300.47;;;24.63;71.97
15662;BME280;7931;52.274;10.470;2022-08-19T12:04:21;100302.75;;;24.73;70.28
15662;BME280;7931;52.274;10.470;2022-08-19T12:06:46;100307.50;;;25.04;68.63
15662;BME280;7931;52.274;10.470;2022-08-19T12:09:12;100294.91;;;25.29;69.36
15662;BME280;7931;52.274;10.470;2022-08-19T12:11:39;100286.78;;;25.61;67.73
15662;BME280;7931;52.274;10.470;2022-08-19T12:14:06;100291.50;;;25.41;67.74
15662;BME280;7931;52.274;10.470;2022-08-19T12:16:32;100296.88;;;24.69;69.19
15662;BME280;7931;52.274;10.470;2022-08-19T12:18:58;100301.22;;;25.03;68.79
15662;BME280;7931;52.274;10.470;2022-08-19T12:21:28;100303.16;;;25.09;69.75
15662;BME280;7931;52.274;10.470;2022-08-19T12:23:55;100292.69;;;25.58;67.10
15662;BME280;7931;52.274;10.470;2022-08-19T12:26:21;100286.63;;;25.94;66.69
15662;BME280;7931;52.274;10.470;2022-08-19T12:28:47;100292.50;;;25.91;65.92
15662;BME280;7931;52.274;10.470;2022-08-19T12:31:14;100296.25;;;25.58;66.24
15662;BME280;7931;52.274;10.470;2022-08-19T12:33:41;100289.84;;;25.84;67.89
15662;BME280;7931;52.274;10.470;2022-08-19T12:36:09;100294.22;;;25.92;65.36
15662;BME280;7931;52.274;10.470;2022-08-19T12:38:37;100293.53;;;25.58;66.45
15662;BME280;7931;52.274;10.470;2022-08-19T12:41:03;100294.06;;;25.80;68.07
15662;BME280;7931;52.274;10.470;2022-08-19T12:43:32;100292.59;;;26.41;63.74
15662;BME280;7931;52.274;10.470;2022-08-19T12:45:57;100296.91;;;26.74;62.95
15662;BME280;7931;52.274;10.470;2022-08-19T12:48:23;100298.53;;;26.81;62.06
15662;BME280;7931;52.274;10.470;2022-08-19T12:50:48;100295.53;;;27.45;60.04
15662;BME280;7931;52.274;10.470;2022-08-19T12:53:14;100298.84;;;26.91;61.19